Time;durP1;ratioP1;P1;durP2;ratioP2;P2;SDS_P1;SDS_P2;PMS_P1;PMS_P2;Temp;Humidity;BMP_temperature;BMP_pressure;BME280_temperature;BME280_humidity;BME280_pressure;Samples;Min_cycle;Max_cycle;Signal;HPM_P1;HPM_P2
2022/05/08 00:02:52;;;;;;;13.50;4.47;;;8.70;99.90;;;;;;4887219;29;21019;-67
2022/05/08 00:05:43;;;;;;;7.80;3.73;;;8.60;99.90;;;;;;4882457;29;20476;-68
2022/05/08 00:08:36;;;;;;;9.73;3.30;;;8.60;99.90;;;;;;4886295;29;20542;-67
2022/05/08 00:11:31;;;;;;;9.10;3.43;;;8.60;99.90;;;;;;4884266;29;20454;-67
2022/05/08 00:14:24;;;;;;;6.90;3.20;;;8.50;99.90;;;;;;4882970;29;20553;-67
2022/05/08 00:17:13;;;;;;;6.80;3.40;;;8.50;99.90;;;;;;4884227;29;20458;-67
2022/05/08 00:20:08;;;;;;;5.97;3.03;;;8.50;99.90;;;;;;4883890;29;20490;-67
2022/05/08 00:22:59;;;;;;;5.30;3.00;;;8.50;99.90;;;;;;4880274;29;20553;-67
2022/05/08 00:25:54;;;;;;;7.40;3.23;;;8.50;99.90;;;;;;4885178;29;20462;-68
2022/05/08 00:28:42;;;;;;;8.33;3.00;;;8.50;99.90;;;;;;4884473;29;20959;-67
2022/05/08 00:31:32;;;;;;;5.10;2.60;;;8.50;99.90;;;;;;4883270;29;20940;-67
2022/05/08 00:34:22;;;;;;;7.00;2.73;;;8.50;99.90;;;;;;4883222;29;20486;-68
2022/05/08 00:37:18;;;;;;;7.50;3.20;;;8.40;99.90;;;;;;4882092;29;20455;-68
2022/05/08 00:40:07;;;;;;;10.13;3.10;;;8.40;99.90;;;;;;4882980;29;20565;-67
2022/05/08 00:43:13;;;;;;;4.17;2.53;;;8.30;99.90;;;;;;4879498;29;20487;-67
2022/05/08 00:46:05;;;;;;;10.93;3.60;;;8.30;99.90;;;;;;4885722;29;20968;-67
2022/05/08 00:48:57;;;;;;;9.43;2.93;;;8.30;99.90;;;;;;4884894;29;20474;-67
2022/05/08 00:51:49;;;;;;;6.13;2.43;;;8.30;99.90;;;;;;4882602;29;20871;-67
2022/05/08 00:54:43;;;;;;;4.63;2.53;;;8.30;99.90;;;;;;4881846;29;20481;-68
2022/05/08 00:57:47;;;;;;;;;;;;;;;;;;;;;
2022/05/08 01:00:38;;;;;;;6.00;3.37;;;8.20;99.90;;;;;;4883903;29;20494;-67
2022/05/08 01:03:31;;;;;;;8.70;3.00;;;8.20;99.90;;;;;;4892966;29;20667;-67
2022/05/08 01:06:19;;;;;;;7.97;2.90;;;8.20;99.90;;;;;;4857938;29;1017288;-67
2022/05/08 01:12:27;;;;;;;6.60;3.40;;;8.00;99.90;;;;;;4883008;29;20568;-67
2022/05/08 01:15:20;;;;;;;7.80;3.70;;;8.00;99.90;;;;;;4883735;29;20985;-67
2022/05/08 01:18:14;;;;;;;10.07;3.50;;;8.10;99.90;;;;;;4883260;29;20566;-68
2022/05/08 01:21:02;;;;;;;6.53;2.63;;;8.00;99.90;;;;;;4878418;29;20465;-67
2022/05/08 01:23:59;;;;;;;7.40;2.73;;;7.90;99.90;;;;;;4877859;29;20493;-67
2022/05/08 01:26:50;;;;;;;5.30;3.30;;;7.90;99.90;;;;;;4885611;29;20485;-67
2022/05/08 01:29:44;;;;;;;7.43;3.50;;;7.90;99.90;;;;;;4882771;29;20465;-67
2022/05/08 01:32:40;;;;;;;6.93;2.80;;;7.90;99.90;;;;;;4876079;29;20510;-68
2022/05/08 01:35:30;;;;;;;6.93;2.93;;;7.90;99.90;;;;;;4884125;29;20477;-68
2022/05/08 01:38:26;;;;;;;5.53;2.63;;;7.80;99.90;;;;;;4885497;29;20923;-67
2022/05/08 01:41:18;;;;;;;10.27;3.30;;;7.70;99.90;;;;;;4879670;29;20537;-68
2022/05/08 01:44:10;;;;;;;5.73;3.13;;;7.70;99.90;;;;;;4878249;29;21096;-67
2022/05/08 01:50:05;;;;;;;8.23;3.23;;;7.50;99.90;;;;;;4886870;29;20792;-67
2022/05/08 01:52:59;;;;;;;5.00;3.50;;;7.40;99.90;;;;;;4882400;29;20525;-67
2022/05/08 01:56:02;;;;;;;6.87;3.20;;;7.40;99.90;;;;;;4884521;29;21041;-67
2022/05/08 01:58:58;;;;;;;6.40;3.20;;;7.40;99.90;;;;;;4879664;29;20898;-67
2022/05/08 02:01:56;;;;;;;5.27;3.10;;;7.30;99.90;;;;;;4881436;29;20515;-68
2022/05/08 02:04:53;;;;;;;7.10;3.63;;;7.30;99.90;;;;;;4885249;29;20485;-68
2022/05/08 02:07:45;;;;;;;4.40;3.60;;;7.30;99.90;;;;;;4882217;29;20598;-68
2022/05/08 02:10:35;;;;;;;8.40;3.90;;;7.30;99.90;;;;;;4881185;29;20541;-68
2022/05/08 02:13:33;;;;;;;5.93;3.43;;;7.20;99.90;;;;;;4880054;29;20909;-68
2022/05/08 02:16:27;;;;;;;7.37;3.30;;;7.20;99.90;;;;;;4883040;29;20465;-68
2022/05/08 02:19:18;;;;;;;8.70;3.70;;;7.20;99.90;;;;;;4880867;29;20477;-70
2022/05/08 02:22:08;;;;;;;8.23;3.60;;;7.10;99.90;;;;;;4880725;29;20489;-68
2022/05/08 02:25:07;;;;;;;6.00;3.17;;;7.10;99.90;;;;;;4884980;29;20470;-68
2022/05/08 02:27:55;;;;;;;3.70;2.73;;;7.10;99.90;;;;;;4883545;29;20615;-68
2022/05/08 02:30:51;;;;;;;6.90;3.73;;;7.10;99.90;;;;;;4882201;29;20475;-68
2022/05/08 02:33:43;;;;;;;8.10;3.50;;;7.00;99.90;;;;;;4880331;29;20514;-68
2022/05/08 02:36:38;;;;;;;4.60;3.20;;;7.00;99.90;;;;;;4879731;29;20477;-68
2022/05/08 02:39:27;;;;;;;5.23;3.17;;;6.90;99.90;;;;;;4885039;29;20577;-68
2022/05/08 02:42:36;;;;;;;9.03;3.33;;;6.90;99.90;;;;;;4863472;29;20861;-69
2022/05/08 02:45:59;;;;;;;11.90;4.57;;;6.80;99.90;;;;;;4884725;29;20520;-68
2022/05/08 02:48:53;;;;;;;10.93;4.20;;;6.70;99.90;;;;;;4886360;29;20457;-68
2022/05/08 02:51:43;;;;;;;8.13;3.60;;;6.70;99.90;;;;;;4883299;29;20466;-68
2022/05/08 02:54:36;;;;;;;7.30;3.97;;;6.70;99.90;;;;;;4887211;29;20561;-68
2022/05/08 03:00:33;;;;;;;7.37;3.67;;;6.60;99.90;;;;;;4888510;29;21091;-68
2022/05/08 03:03:40;;;;;;;4.93;3.27;;;6.60;99.90;;;;;;4888191;29;21144;-69
2022/05/08 03:06:32;;;;;;;6.17;4.00;;;6.60;99.90;;;;;;4886312;29;20561;-68
2022/05/08 03:09:25;;;;;;;6.37;3.87;;;6.50;99.90;;;;;;4884985;29;20522;-68
2022/05/08 03:12:16;;;;;;;8.87;3.80;;;6.50;99.90;;;;;;4883012;29;20470;-68
2022/05/08 14:08:01;;;;;;;4.40;2.93;;;21.60;99.90;;;;;;4632034;27;20551;-66
2022/05/08 14:10:53;;;;;;;5.10;3.00;;;21.70;99.90;;;;;;4817737;29;20461;-66
2022/05/08 14:13:48;;;;;;;5.07;3.13;;;21.70;99.90;;;;;;4833555;29;21007;-66
2022/05/08 14:16:49;;;;;;;3.73;2.60;;;21.70;99.90;;;;;;4819215;29;20467;-66
2022/05/08 14:19:39;;;;;;;7.70;3.33;;;21.80;99.60;;;;;;4816080;29;20461;-65
2022/05/08 14:22:47;;;;;;;5.17;3.10;;;22.00;99.90;;;;;;4819631;29;20611;-65
2022/05/08 14:25:43;;;;;;;6.47;2.90;;;22.10;99.90;;;;;;4807250;29;20495;-66
2022/05/08 14:28:42;;;;;;;6.57;3.37;;;22.40;99.90;;;;;;4822185;29;20464;-67
2022/05/08 14:38:02;;;;;;;6.00;2.97;;;25.20;96.30;;;;;;4822064;29;21007;-67
2022/05/08 14:41:01;;;;;;;5.40;3.33;;;25.40;92.50;;;;;;4822391;29;20496;-68
2022/05/08 14:44:01;;;;;;;5.57;2.70;;;25.00;93.60;;;;;;4839824;29;21000;-67
2022/05/08 14:46:56;;;;;;;5.23;2.87;;;24.60;94.00;;;;;;4819791;29;20467;-66
2022/05/08 14:49:54;;;;;;;5.17;2.90;;;24.30;93.60;;;;;;4825042;29;20467;-66
2022/05/08 14:52:49;;;;;;;4.40;2.50;;;23.90;93.30;;;;;;4819593;29;20568;-67
2022/05/08 14:55:47;;;;;;;7.13;3.10;;;23.90;92.70;;;;;;4816230;29;21001;-67
2022/05/08 14:58:41;;;;;;;3.87;2.70;;;23.90;93.80;;;;;;4813427;29;20913;-67
2022/05/08 15:01:33;;;;;;;5.70;2.90;;;23.80;92.20;;;;;;4835573;29;20707;-66
2022/05/08 15:04:36;;;;;;;6.07;3.23;;;23.60;91.20;;;;;;4827324;29;20512;-67
2022/05/08 15:07:34;;;;;;;6.57;2.73;;;23.60;91.70;;;;;;4834668;29;20534;-66
2022/05/08 15:10:24;;;;;;;5.50;3.50;;;23.50;92.00;;;;;;4830102;29;20453;-67
2022/05/08 15:13:19;;;;;;;3.43;2.63;;;23.50;92.10;;;;;;4820891;29;20503;-66
2022/05/08 15:16:25;;;;;;;5.23;2.80;;;23.30;91.60;;;;;;4825253;29;20866;-66
2022/05/08 15:19:22;;;;;;;6.80;3.00;;;23.30;92.60;;;;;;4820298;29;20467;-66
2022/05/08 15:22:13;;;;;;;4.70;3.07;;;23.10;92.30;;;;;;4824139;29;20509;-66
2022/05/08 15:25:06;;;;;;;8.60;3.00;;;23.20;92.70;;;;;;4829609;29;20968;-66
2022/05/08 15:28:00;;;;;;;4.07;3.00;;;23.00;90.20;;;;;;4831267;29;20585;-66
2022/05/08 15:30:57;;;;;;;5.60;3.33;;;22.70;91.80;;;;;;4826421;29;20461;-66
2022/05/08 15:33:53;;;;;;;6.80;3.60;;;22.70;91.90;;;;;;4832204;29;20490;-66
2022/05/08 15:36:46;;;;;;;4.47;2.83;;;22.60;92.30;;;;;;4833966;29;21033;-66
2022/05/08 15:39:43;;;;;;;5.77;2.70;;;22.70;92.40;;;;;;4832484;29;20579;-66
2022/05/08 15:42:31;;;;;;;5.97;2.60;;;22.60;92.20;;;;;;4830941;29;20571;-66
2022/05/08 15:45:22;;;;;;;3.23;2.50;;;22.50;91.70;;;;;;4827135;29;20627;-66
2022/05/08 15:48:13;;;;;;;6.13;3.00;;;22.30;91.70;;;;;;4835611;29;20472;-66
2022/05/08 15:51:05;;;;;;;7.90;2.90;;;22.10;91.00;;;;;;4837839;29;20562;-67
2022/05/08 15:54:01;;;;;;;5.77;2.90;;;22.10;91.80;;;;;;4824864;29;20872;-66
2022/05/08 15:56:51;;;;;;;6.40;3.03;;;22.10;92.10;;;;;;4839820;29;20468;-66
2022/05/08 15:59:47;;;;;;;6.10;2.43;;;22.00;91.80;;;;;;4815975;29;20536;-67
2022/05/08 16:02:42;;;;;;;5.93;2.63;;;22.00;93.10;;;;;;4828504;29;20507;-66
2022/05/08 16:05:40;;;;;;;6.60;2.93;;;22.00;93.10;;;;;;4825374;29;21493;-73
2022/05/08 16:08:34;;;;;;;7.23;3.13;;;22.10;92.40;;;;;;4826706;29;20556;-64
2022/05/08 16:11:30;;;;;;;5.00;2.80;;;21.90;92.70;;;;;;4836575;29;20523;-65
2022/05/08 16:24:11;;;;;;;6.70;2.80;;;21.70;85.00;;;;;;4815842;29;20492;-64
2022/05/08 16:27:09;;;;;;;4.30;2.43;;;21.70;84.10;;;;;;4836782;29;20847;-65
2022/05/08 16:29:57;;;;;;;3.30;2.50;;;21.60;81.70;;;;;;4842479;29;20492;-67
2022/05/08 16:32:52;;;;;;;4.53;2.60;;;21.50;82.00;;;;;;4830546;29;20480;-65
2022/05/08 16:35:45;;;;;;;4.63;2.40;;;21.60;82.70;;;;;;4831109;29;20476;-65
2022/05/08 16:38:34;;;;;;;4.33;2.57;;;21.60;83.60;;;;;;4830876;29;20998;-65
2022/05/08 16:41:31;;;;;;;3.10;2.17;;;21.60;84.60;;;;;;4843500;29;20499;-65
2022/05/08 16:44:24;;;;;;;4.97;2.53;;;21.50;82.60;;;;;;4839185;29;20503;-65
2022/05/08 16:47:18;;;;;;;7.07;2.50;;;21.40;83.70;;;;;;4832704;29;20480;-66
2022/05/08 16:50:09;;;;;;;5.73;3.10;;;21.30;86.30;;;;;;4825476;29;20952;-66
2022/05/08 16:53:00;;;;;;;4.60;2.50;;;21.20;94.50;;;;;;4825811;29;20550;-65
2022/05/08 16:55:51;;;;;;;9.80;4.37;;;21.20;95.90;;;;;;4826906;29;20460;-64
2022/05/08 16:58:44;;;;;;;7.80;3.37;;;21.10;97.80;;;;;;4819506;29;20485;-65
2022/05/08 17:01:34;;;;;;;5.20;3.00;;;21.00;98.90;;;;;;4827513;29;21150;-65
2022/05/08 17:04:22;;;;;;;7.90;3.20;;;20.80;99.90;;;;;;4819242;29;20495;-66
2022/05/08 17:07:11;;;;;;;7.67;3.50;;;20.80;99.90;;;;;;4830507;29;20560;-65
2022/05/08 17:10:09;;;;;;;6.60;3.40;;;20.70;99.90;;;;;;4826884;29;20757;-68
2022/05/08 17:13:06;;;;;;;6.00;3.30;;;20.70;99.90;;;;;;4827182;29;20492;-67
2022/05/08 17:15:59;;;;;;;6.80;2.90;;;20.40;99.90;;;;;;4830191;29;21751;-65
2022/05/08 17:18:57;;;;;;;9.10;3.17;;;20.00;99.90;;;;;;4834951;29;20469;-65
2022/05/08 17:21:47;;;;;;;5.40;3.00;;;19.70;99.90;;;;;;4826496;29;20489;-66
2022/05/08 17:24:41;;;;;;;7.63;3.17;;;19.50;99.90;;;;;;4825083;29;20515;-66
2022/05/08 17:30:39;;;;;;;5.10;3.43;;;19.10;99.90;;;;;;4823514;29;21075;-66
2022/05/08 17:33:32;;;;;;;6.60;3.10;;;19.00;99.90;;;;;;4827102;29;20500;-67
2022/05/08 17:36:26;;;;;;;6.70;3.20;;;18.70;99.90;;;;;;4827638;29;20468;-66
2022/05/08 17:39:30;;;;;;;;;;;;;;;;;;;;;
2022/05/08 17:42:28;;;;;;;11.87;3.47;;;18.30;99.90;;;;;;4833552;29;20499;-67
2022/05/08 17:45:16;;;;;;;4.97;3.03;;;18.30;99.90;;;;;;4821487;29;20481;-69
2022/05/08 17:48:06;;;;;;;4.93;2.93;;;18.10;99.90;;;;;;4826572;29;20561;-70
2022/05/08 17:51:01;;;;;;;8.40;3.27;;;18.10;99.90;;;;;;4829525;29;20452;-68
2022/05/08 17:53:51;;;;;;;5.13;2.87;;;17.90;99.90;;;;;;4823495;29;20586;-69
2022/05/08 17:56:41;;;;;;;7.27;3.33;;;17.60;99.90;;;;;;4827931;29;22340;-69
2022/05/08 17:59:35;;;;;;;7.93;3.10;;;17.50;99.90;;;;;;4831613;29;20464;-69
2022/05/08 18:05:57;;;;;;;7.33;4.03;;;17.20;99.90;;;;;;4838655;29;20467;-65
2022/05/08 18:08:52;;;;;;;5.57;3.00;;;17.30;99.90;;;;;;4831205;29;20486;-64
2022/05/08 18:11:42;;;;;;;8.27;3.47;;;17.20;99.90;;;;;;4825208;29;20572;-64
2022/05/08 18:22:40;;;;;;;7.70;2.80;;;16.80;99.90;;;;;;4831186;23;20518;-64
2022/05/08 18:27:58;;;;;;;7.00;3.33;;;16.70;99.90;;;;;;4826441;29;20496;-67
2022/05/08 18:30:46;;;;;;;7.80;3.93;;;16.70;99.90;;;;;;4824213;29;20468;-66
2022/05/08 18:33:34;;;;;;;11.73;4.00;;;16.60;99.90;;;;;;4823402;29;21026;-68
2022/05/08 18:36:22;;;;;;;9.87;3.30;;;16.40;99.90;;;;;;4825980;29;21033;-67
2022/05/08 18:39:11;;;;;;;11.57;3.57;;;16.40;99.90;;;;;;4823627;29;20934;-66
2022/05/08 18:41:59;;;;;;;6.90;3.70;;;16.40;99.90;;;;;;4826031;29;20484;-66
2022/05/08 18:44:49;;;;;;;6.27;2.87;;;16.20;99.90;;;;;;4826437;29;20969;-66
2022/05/08 18:47:37;;;;;;;7.87;3.13;;;16.10;99.90;;;;;;4825109;29;20493;-67
2022/05/08 18:50:29;;;;;;;9.40;3.63;;;16.00;99.90;;;;;;4820644;29;20464;-68
2022/05/08 18:53:17;;;;;;;7.33;3.93;;;15.90;99.90;;;;;;4827888;29;20496;-68
2022/05/08 18:56:06;;;;;;;8.00;4.37;;;15.90;99.90;;;;;;4828862;29;21250;-69
2022/05/08 18:58:54;;;;;;;9.70;4.23;;;15.80;99.90;;;;;;4831529;29;20497;-69
2022/05/08 19:01:45;;;;;;;10.90;4.70;;;15.80;99.90;;;;;;4824191;29;20461;-74
2022/05/08 19:04:34;;;;;;;9.03;4.07;;;15.70;99.90;;;;;;4825105;29;20489;-66
2022/05/08 19:07:23;;;;;;;7.90;3.37;;;15.50;99.90;;;;;;4815812;29;20472;-65
2022/05/08 19:10:11;;;;;;;5.57;3.30;;;15.50;99.90;;;;;;4823859;29;21140;-66
2022/05/08 19:12:59;;;;;;;9.70;4.13;;;15.40;99.90;;;;;;4829931;29;20556;-66
2022/05/08 19:15:47;;;;;;;8.67;3.93;;;15.30;99.90;;;;;;4826911;29;20571;-65
2022/05/08 19:18:37;;;;;;;11.47;4.20;;;15.20;99.90;;;;;;4826677;29;20460;-66
2022/05/08 19:21:25;;;;;;;8.83;3.90;;;15.10;99.90;;;;;;4827687;29;20557;-66
2022/05/08 19:24:13;;;;;;;11.07;3.70;;;15.10;99.90;;;;;;4825912;29;20591;-66
2022/05/08 19:27:01;;;;;;;8.40;3.47;;;14.90;99.90;;;;;;4825596;29;20749;-66
2022/05/08 19:29:50;;;;;;;8.10;3.20;;;14.80;99.90;;;;;;4827872;29;20501;-70
2022/05/08 19:38:51;;;;;;;7.50;3.43;;;14.60;99.90;;;;;;4819370;29;20583;-65
2022/05/08 19:41:40;;;;;;;9.60;3.70;;;14.50;99.90;;;;;;4815573;29;21176;-65
2022/05/08 19:44:28;;;;;;;6.37;3.87;;;14.30;99.90;;;;;;4815694;29;20492;-65
2022/05/08 19:47:17;;;;;;;7.90;4.10;;;14.40;99.90;;;;;;4831546;29;20483;-65
2022/05/08 19:50:06;;;;;;;6.67;4.00;;;14.30;99.90;;;;;;4829872;29;20548;-66
2022/05/08 19:52:56;;;;;;;8.00;3.93;;;14.20;99.90;;;;;;4829463;29;20564;-66
2022/05/08 19:55:44;;;;;;;9.50;4.30;;;14.30;99.90;;;;;;4830496;29;20579;-65
2022/05/08 19:58:32;;;;;;;12.63;4.17;;;14.10;99.90;;;;;;4832530;29;20970;-66
2022/05/08 20:01:20;;;;;;;8.13;3.53;;;14.10;99.90;;;;;;4832051;29;20997;-64
2022/05/08 20:04:09;;;;;;;7.93;3.87;;;13.90;99.90;;;;;;4830628;29;20492;-65
2022/05/08 20:06:57;;;;;;;6.50;3.70;;;13.80;99.90;;;;;;4829328;29;20852;-65
2022/05/08 20:09:47;;;;;;;6.50;4.23;;;13.80;99.90;;;;;;4831654;29;21066;-65
2022/05/08 20:12:36;;;;;;;7.60;4.47;;;13.80;99.90;;;;;;4830579;29;20576;-64
2022/05/08 20:15:28;;;;;;;4.70;3.47;;;13.70;99.90;;;;;;4831969;29;20484;-65
2022/05/08 20:18:16;;;;;;;7.67;3.90;;;13.60;99.90;;;;;;4832376;29;20461;-64
2022/05/08 20:24:16;;;;;;;6.43;3.90;;;13.40;99.90;;;;;;4825871;29;20552;-64
2022/05/08 20:27:07;;;;;;;7.37;4.10;;;13.20;99.90;;;;;;4828105;29;20980;-65
2022/05/08 20:29:55;;;;;;;6.47;4.57;;;13.20;99.90;;;;;;4828356;29;20496;-65
2022/05/08 20:32:44;;;;;;;7.37;4.20;;;13.20;99.90;;;;;;4830039;29;20840;-64
2022/05/08 20:35:32;;;;;;;10.10;4.67;;;13.10;99.90;;;;;;4832525;29;20540;-64
2022/05/08 20:38:20;;;;;;;8.67;4.47;;;13.00;99.90;;;;;;4828638;29;20513;-65
2022/05/08 20:41:09;;;;;;;9.40;4.77;;;13.00;99.90;;;;;;4827256;29;20463;-64
2022/05/08 20:43:58;;;;;;;6.80;3.90;;;12.80;99.90;;;;;;4832504;29;20508;-65
2022/05/08 20:46:48;;;;;;;8.70;4.70;;;12.70;99.90;;;;;;4831227;29;20852;-65
2022/05/08 20:49:36;;;;;;;11.67;4.80;;;12.60;99.90;;;;;;4830257;29;20958;-65
2022/05/08 20:52:25;;;;;;;6.97;4.50;;;12.60;99.90;;;;;;4831736;29;20516;-64
2022/05/08 20:55:13;;;;;;;6.53;5.40;;;12.50;99.90;;;;;;4826842;29;21172;-65
2022/05/08 20:58:01;;;;;;;6.47;4.33;;;12.60;99.90;;;;;;4830147;29;20516;-64
2022/05/08 21:00:51;;;;;;;11.57;5.20;;;12.40;99.90;;;;;;4831646;29;20473;-65
2022/05/08 21:03:39;;;;;;;15.00;5.37;;;12.30;99.90;;;;;;4829356;29;20485;-65
2022/05/08 21:09:33;;;;;;;6.37;4.43;;;12.20;99.90;;;;;;4827899;29;20555;-65
2022/05/08 21:12:22;;;;;;;8.10;4.20;;;12.20;99.90;;;;;;4828320;29;20492;-65
2022/05/08 21:15:10;;;;;;;9.80;5.23;;;12.20;99.90;;;;;;4829598;29;20530;-65
2022/05/08 21:18:02;;;;;;;7.83;4.73;;;12.10;99.90;;;;;;4829776;29;20468;-65
2022/05/08 21:20:51;;;;;;;6.50;4.57;;;12.00;99.90;;;;;;4827477;29;20481;-65
2022/05/08 21:23:40;;;;;;;9.13;4.70;;;11.90;99.90;;;;;;4826751;29;20521;-64
2022/05/08 21:26:28;;;;;;;10.43;5.13;;;11.90;99.90;;;;;;4828625;29;20480;-65
2022/05/08 21:29:16;;;;;;;7.67;4.40;;;11.80;99.90;;;;;;4828767;29;20461;-67
2022/05/08 21:32:05;;;;;;;8.33;4.60;;;11.80;99.90;;;;;;4828500;29;20485;-65
2022/05/08 21:34:55;;;;;;;6.43;4.80;;;11.70;99.90;;;;;;4827173;29;20556;-64
2022/05/08 21:37:43;;;;;;;6.80;4.50;;;11.60;99.90;;;;;;4828096;29;20648;-64
2022/05/08 21:40:31;;;;;;;9.70;4.63;;;11.50;99.90;;;;;;4825278;29;20613;-64
2022/05/08 21:43:20;;;;;;;7.00;4.60;;;11.40;99.90;;;;;;4827811;29;20590;-66
2022/05/08 21:46:08;;;;;;;11.40;5.27;;;11.30;99.90;;;;;;4828285;29;20563;-65
2022/05/08 21:49:00;;;;;;;7.50;5.30;;;11.30;99.90;;;;;;4829494;29;20465;-64
2022/05/08 21:51:49;;;;;;;9.87;4.93;;;11.10;99.90;;;;;;4831379;29;20468;-65
2022/05/08 21:54:38;;;;;;;8.07;5.10;;;11.10;99.90;;;;;;4829537;29;20545;-65
2022/05/08 21:57:26;;;;;;;6.50;4.53;;;11.10;99.90;;;;;;4831879;29;20832;-64
2022/05/08 22:00:16;;;;;;;6.10;4.80;;;11.10;99.90;;;;;;4833312;29;20527;-65
2022/05/08 22:03:04;;;;;;;8.33;4.73;;;11.00;99.90;;;;;;4833850;29;20542;-67
2022/05/08 22:05:53;;;;;;;8.27;4.90;;;10.90;99.90;;;;;;4828912;29;20504;-66
2022/05/08 22:08:43;;;;;;;8.80;5.23;;;10.90;99.90;;;;;;4827985;29;20453;-64
2022/05/08 22:11:31;;;;;;;7.73;5.00;;;10.90;99.90;;;;;;4834375;29;20456;-65
2022/05/08 22:14:19;;;;;;;8.03;5.10;;;10.70;99.90;;;;;;4833149;29;20586;-67
2022/05/08 22:17:07;;;;;;;10.13;5.90;;;10.70;99.90;;;;;;4832393;29;20525;-65
2022/05/08 22:19:55;;;;;;;7.47;5.70;;;10.70;99.90;;;;;;4832626;29;20566;-65
2022/05/08 22:22:43;;;;;;;6.50;5.40;;;10.60;99.90;;;;;;4830631;29;20851;-65
2022/05/08 22:25:33;;;;;;;9.10;5.37;;;10.60;99.90;;;;;;4828547;29;20488;-65
2022/05/08 22:28:21;;;;;;;7.23;5.70;;;10.60;99.90;;;;;;4829854;29;20612;-64
2022/05/08 22:31:09;;;;;;;9.47;5.40;;;10.40;99.90;;;;;;4832925;29;20526;-64
2022/05/08 22:33:59;;;;;;;10.47;6.00;;;10.40;99.90;;;;;;4827028;29;20493;-65
2022/05/08 22:36:48;;;;;;;9.23;5.60;;;10.30;99.90;;;;;;4831373;29;20500;-64
2022/05/08 22:39:36;;;;;;;7.83;5.63;;;10.30;99.90;;;;;;4827585;29;20581;-64
2022/05/08 22:42:25;;;;;;;8.00;5.17;;;10.20;99.90;;;;;;4831678;29;20483;-64
2022/05/08 22:45:13;;;;;;;7.30;5.47;;;10.20;99.90;;;;;;4829022;29;20580;-65
2022/05/08 22:48:01;;;;;;;8.70;5.50;;;10.10;99.90;;;;;;4832860;29;20477;-64
2022/05/08 22:50:50;;;;;;;9.60;5.50;;;10.10;99.90;;;;;;4832335;29;20461;-64
2022/05/08 22:53:38;;;;;;;7.37;5.80;;;10.10;99.90;;;;;;4829558;29;20555;-64
2022/05/08 22:56:28;;;;;;;8.50;5.80;;;10.00;99.90;;;;;;4831350;29;20463;-64
2022/05/08 22:59:17;;;;;;;8.20;5.10;;;10.00;99.90;;;;;;4835514;29;20605;-64
2022/05/08 23:02:05;;;;;;;11.43;6.30;;;9.90;99.90;;;;;;4833450;29;20963;-65
2022/05/08 23:04:54;;;;;;;7.90;5.60;;;9.90;99.90;;;;;;4831927;29;20520;-64
2022/05/08 23:07:42;;;;;;;9.13;6.13;;;9.70;99.90;;;;;;4827169;29;20497;-64
2022/05/08 23:10:30;;;;;;;7.17;5.57;;;9.70;99.90;;;;;;4831209;29;21236;-64
2022/05/08 23:13:18;;;;;;;6.87;5.60;;;9.80;99.90;;;;;;4829148;29;20476;-64
2022/05/08 23:16:08;;;;;;;8.03;5.80;;;9.70;99.90;;;;;;4829406;29;20513;-64
2022/05/08 23:18:56;;;;;;;10.10;5.77;;;9.70;99.90;;;;;;4830990;29;20472;-64
2022/05/08 23:21:44;;;;;;;5.87;4.83;;;9.60;99.90;;;;;;4828993;29;20527;-64
2022/05/08 23:24:34;;;;;;;7.53;5.57;;;9.50;99.90;;;;;;4828202;29;24585;-66
2022/05/08 23:27:22;;;;;;;6.80;5.30;;;9.50;99.90;;;;;;4829018;29;20508;-66
2022/05/08 23:30:11;;;;;;;7.50;5.17;;;9.50;99.90;;;;;;4829708;29;20525;-66
2022/05/08 23:33:01;;;;;;;6.80;5.00;;;9.40;99.90;;;;;;4829843;29;20513;-65
2022/05/08 23:35:49;;;;;;;7.37;5.10;;;9.40;99.90;;;;;;4830359;29;20484;-64
2022/05/08 23:38:37;;;;;;;7.00;5.33;;;9.40;99.90;;;;;;4828727;29;20859;-66
2022/05/08 23:41:25;;;;;;;10.07;5.37;;;9.30;99.90;;;;;;4825597;29;20482;-66
2022/05/08 23:44:13;;;;;;;10.07;6.10;;;9.20;99.90;;;;;;4828493;29;20608;-64
2022/05/08 23:47:02;;;;;;;10.60;5.77;;;9.20;99.90;;;;;;4829018;29;20557;-64
2022/05/08 23:49:52;;;;;;;7.20;6.50;;;9.10;99.90;;;;;;4831521;29;20567;-64
2022/05/08 23:52:40;;;;;;;7.97;5.17;;;9.10;99.90;;;;;;4827396;29;20480;-64
2022/05/08 23:55:30;;;;;;;7.03;5.43;;;9.10;99.90;;;;;;4825946;29;20481;-65
2022/05/08 23:58:18;;;;;;;8.83;5.30;;;9.00;99.90;;;;;;4828099;29;20478;-64
